Terminal Aerodrome Forecast
Issued by NWS St Louis, MO

Home | Current Version | Previous Version | Text Only | Print | Product List | Glossary On
Versions: 1 2 3 4 5 6 7 8 9 10 11 12 13 14 15
000
FTUS43 KLSX 220520
TAFCOU
TAF
KCOU 220520Z 2206/2306 08011G18KT P6SM OVC120
     FM221300 07010G17KT 6SM -SHRA OVC080
     FM221500 07010G21KT P6SM OVC060=

USA.gov is the U.S. government's official web portal to all federal, state and local government web resources and services.